Cape Saint James, Canada
Current Conditions -  °F | °C
As of 12:00 AM on Friday 19 Dec 2014 (Local Time) from CYZP Reporting Station
Few Clouds Few Clouds  
Wind Chill: 36°   Ceiling: Unl
Heat Index: 39°   Visibility: 9mi
Dew Point: 37°   Wind: 5mph
Humidity: 93%   Direction: 220°SW
Pressure: 29.33"   Gusts: NA
Location:  51.94°N, 131.02°W
Report Text: CYZP 190800Z AUTO 22004KT 180V240 9SM FEW120 04/03 A2933 RMK SLP930
Loading
Personal Weather Stations






























Interactive Weather Map New forecast layout! Learn more

10-Day Weather Forecast

Advertisements
Track Severe Weather on mobile